createdAt,value
2022-12-07T00:00:29.513Z,92
2022-12-07T00:01:26.129Z,92
2022-12-07T00:02:21.986Z,92
2022-12-07T00:03:29.233Z,92
2022-12-07T00:04:32.226Z,92
2022-12-07T00:05:25.843Z,92
2022-12-07T00:06:22.628Z,92
2022-12-07T00:07:32.229Z,92
2022-12-07T00:08:25.022Z,92
2022-12-07T00:09:24.272Z,92
2022-12-07T00:10:31.851Z,92
2022-12-07T00:11:26.361Z,92
2022-12-07T00:12:23.781Z,91
2022-12-07T00:13:24.300Z,91
2022-12-07T00:14:26.070Z,91
2022-12-07T00:15:26.030Z,92
2022-12-07T00:16:20.892Z,92
2022-12-07T00:17:30.021Z,92
2022-12-07T00:18:27.667Z,92
2022-12-07T00:19:22.056Z,92
2022-12-07T00:20:25.375Z,92
2022-12-07T00:21:30.116Z,92
2022-12-07T00:22:20.239Z,92
2022-12-07T00:23:19.956Z,92
2022-12-07T00:24:24.025Z,92
2022-12-07T00:25:21.521Z,92
2022-12-07T00:26:23.987Z,92
2022-12-07T00:27:28.580Z,92
2022-12-07T00:28:27.730Z,92
2022-12-07T00:29:42.674Z,92
2022-12-07T00:30:19.887Z,92
2022-12-07T00:31:31.486Z,92
2022-12-07T00:32:20.095Z,92
2022-12-07T00:33:21.889Z,92
2022-12-07T00:34:32.139Z,92
2022-12-07T00:35:27.707Z,92
2022-12-07T00:36:27.025Z,92
2022-12-07T00:37:21.984Z,92
2022-12-07T00:38:26.447Z,92
2022-12-07T00:39:25.789Z,92
2022-12-07T00:40:21.732Z,92
2022-12-07T00:41:34.975Z,92
2022-12-07T00:42:24.153Z,92
2022-12-07T00:43:23.745Z,92
2022-12-07T00:44:21.303Z,92
2022-12-07T00:45:30.176Z,92
2022-12-07T00:46:28.392Z,92
2022-12-07T00:47:21.704Z,92
2022-12-07T00:48:27.275Z,92
2022-12-07T00:49:26.184Z,92
2022-12-07T00:50:23.733Z,92
2022-12-07T00:51:21.980Z,92
2022-12-07T00:52:22.661Z,92
2022-12-07T00:53:19.872Z,92
2022-12-07T00:54:21.668Z,92
2022-12-07T00:55:31.921Z,92
2022-12-07T00:56:28.042Z,92
2022-12-07T00:57:25.163Z,92
2022-12-07T00:58:19.590Z,92
2022-12-07T00:59:27.973Z,92
2022-12-07T01:00:19.781Z,92
2022-12-07T01:01:22.297Z,92
2022-12-07T01:02:23.988Z,92
2022-12-07T01:03:32.409Z,92
2022-12-07T01:04:25.047Z,92
2022-12-07T01:05:22.220Z,92
2022-12-07T01:06:33.126Z,93
2022-12-07T01:07:26.099Z,92
2022-12-07T01:08:22.275Z,92
2022-12-07T01:09:26.088Z,93
2022-12-07T01:10:23.115Z,93
2022-12-07T01:11:20.881Z,92
2022-12-07T01:12:20.606Z,93
2022-12-07T01:13:29.551Z,93
2022-12-07T01:14:29.679Z,93
2022-12-07T01:15:22.389Z,93
2022-12-07T01:16:28.637Z,92
2022-12-07T01:17:23.173Z,92
2022-12-07T01:18:24.101Z,92
2022-12-07T01:19:20.807Z,92
2022-12-07T01:20:29.836Z,92
2022-12-07T01:21:25.931Z,93
2022-12-07T01:22:25.614Z,93
2022-12-07T01:23:36.237Z,93
2022-12-07T01:24:28.547Z,93
2022-12-07T01:25:20.281Z,93
2022-12-07T01:26:20.927Z,93
2022-12-07T01:27:25.385Z,93
2022-12-07T01:28:25.817Z,93
2022-12-07T01:29:22.020Z,93
2022-12-07T01:30:22.814Z,93
2022-12-07T01:31:29.176Z,93
2022-12-07T01:32:23.841Z,93
2022-12-07T01:33:20.284Z,93
2022-12-07T01:34:29.768Z,93
2022-12-07T01:35:27.850Z,93
2022-12-07T01:36:24.631Z,93
2022-12-07T01:37:26.908Z,93
2022-12-07T01:38:21.546Z,93
2022-12-07T01:39:23.745Z,93
2022-12-07T01:40:22.443Z,93
2022-12-07T01:41:30.091Z,93
2022-12-07T01:42:27.145Z,93
2022-12-07T01:43:21.751Z,93
2022-12-07T01:44:25.315Z,93
2022-12-07T01:45:24.040Z,93
2022-12-07T01:46:25.054Z,93
2022-12-07T01:47:25.718Z,93
2022-12-07T01:48:30.269Z,93
2022-12-07T01:49:26.192Z,93
2022-12-07T01:50:23.444Z,93
2022-12-07T01:51:33.550Z,93
2022-12-07T01:52:28.810Z,93
2022-12-07T01:53:26.218Z,93
2022-12-07T01:54:19.760Z,93
2022-12-07T01:55:23.964Z,93
2022-12-07T01:56:26.626Z,93
2022-12-07T01:57:21.720Z,93
2022-12-07T01:58:22.776Z,93
2022-12-07T01:59:30.222Z,93
2022-12-07T02:00:26.214Z,93
2022-12-07T02:01:21.626Z,93
2022-12-07T02:02:25.922Z,93
2022-12-07T02:42:28.875Z,91
2022-12-07T02:43:47.115Z,91
2022-12-07T02:44:32.042Z,91
2022-12-07T03:17:24.825Z,91
2022-12-07T03:18:21.155Z,91
2022-12-07T03:19:31.644Z,91
2022-12-07T03:20:27.695Z,91
2022-12-07T03:21:23.078Z,91
2022-12-07T03:22:33.119Z,91
2022-12-07T03:23:32.506Z,91
2022-12-07T03:24:23.902Z,91
2022-12-07T03:25:20.013Z,91
2022-12-07T03:26:20.816Z,91
2022-12-07T03:27:26.428Z,91
2022-12-07T03:28:23.001Z,91
2022-12-07T03:29:34.311Z,91
2022-12-07T03:30:28.274Z,91
2022-12-07T03:31:25.874Z,91
2022-12-07T03:32:21.017Z,91
2022-12-07T03:33:25.294Z,91
2022-12-07T03:34:27.048Z,91
2022-12-07T03:35:23.267Z,91
2022-12-07T03:36:21.280Z,91
2022-12-07T03:37:28.280Z,91
2022-12-07T03:38:24.368Z,90
2022-12-07T03:39:21.079Z,90
2022-12-07T03:40:30.168Z,91
2022-12-07T03:41:23.783Z,91
2022-12-07T03:42:27.649Z,91
2022-12-07T03:43:33.458Z,91
2022-12-07T03:44:28.303Z,91
2022-12-07T03:45:25.415Z,91
2022-12-07T03:46:20.374Z,91
2022-12-07T03:47:22.529Z,91
2022-12-07T03:48:26.130Z,91
2022-12-07T03:49:22.508Z,91
2022-12-07T03:50:23.380Z,91
2022-12-07T03:51:30.090Z,91
2022-12-07T03:52:24.145Z,91
2022-12-07T03:53:21.845Z,91
2022-12-07T03:54:27.085Z,91
2022-12-07T03:55:26.110Z,90
2022-12-07T03:56:24.542Z,90
2022-12-07T03:57:24.604Z,90
2022-12-07T03:58:28.007Z,90
2022-12-07T03:59:25.254Z,90
2022-12-07T04:00:20.238Z,91
2022-12-07T04:01:21.459Z,90
2022-12-07T04:02:27.972Z,90
2022-12-07T04:03:22.284Z,90
2022-12-07T04:04:22.114Z,90
2022-12-07T04:05:28.660Z,90
2022-12-07T04:06:24.076Z,90
2022-12-07T04:07:21.499Z,91
2022-12-07T04:08:22.787Z,91
2022-12-07T04:09:27.675Z,90
2022-12-07T04:10:23.380Z,90
2022-12-07T04:11:24.036Z,90
2022-12-07T04:12:27.999Z,90
2022-12-07T04:13:26.623Z,90
2022-12-07T04:14:20.309Z,90
2022-12-07T04:15:25.762Z,90
2022-12-07T04:16:27.808Z,90
2022-12-07T04:17:24.856Z,90
2022-12-07T04:18:28.703Z,90
2022-12-07T04:19:20.819Z,90
2022-12-07T04:20:24.178Z,90
2022-12-07T04:21:23.265Z,90
2022-12-07T04:22:30.399Z,90
2022-12-07T04:23:26.197Z,90
2022-12-07T04:24:24.833Z,90
2022-12-07T04:25:22.310Z,90
2022-12-07T04:26:25.876Z,90
2022-12-07T04:27:24.601Z,90
2022-12-07T04:28:20.074Z,90
2022-12-07T04:29:31.993Z,90
2022-12-07T04:30:26.282Z,90
2022-12-07T04:31:23.461Z,90
2022-12-07T04:32:28.431Z,90
2022-12-07T04:33:28.903Z,90
2022-12-07T04:34:24.507Z,90
2022-12-07T04:35:22.092Z,90
2022-12-07T04:36:31.942Z,90
2022-12-07T04:37:21.678Z,90
2022-12-07T04:38:25.811Z,90
2022-12-07T04:39:33.640Z,90
2022-12-07T04:40:23.549Z,90
2022-12-07T04:41:27.626Z,90
2022-12-07T04:42:20.491Z,90
2022-12-07T04:43:31.300Z,90
2022-12-07T04:44:28.981Z,90
2022-12-07T04:45:22.315Z,90
2022-12-07T04:46:34.767Z,90
2022-12-07T04:47:28.247Z,90
2022-12-07T04:48:20.630Z,90
2022-12-07T04:49:24.856Z,90
2022-12-07T04:50:32.198Z,90
2022-12-07T04:51:27.761Z,90
2022-12-07T04:52:22.442Z,90
2022-12-07T04:53:33.456Z,90
2022-12-07T04:54:28.344Z,91
2022-12-07T04:55:26.277Z,90
2022-12-07T04:56:20.305Z,90
2022-12-07T04:57:20.096Z,90
2022-12-07T04:58:27.943Z,90
2022-12-07T04:59:22.485Z,91
2022-12-07T05:00:33.835Z,91
2022-12-07T05:01:28.305Z,90
2022-12-07T05:02:27.616Z,90
2022-12-07T05:03:22.343Z,90
2022-12-07T05:04:26.184Z,90
2022-12-07T05:05:26.116Z,90
2022-12-07T05:06:23.315Z,90
2022-12-07T05:07:34.126Z,90
2022-12-07T05:08:27.964Z,90
2022-12-07T05:09:26.657Z,90
2022-12-07T05:10:20.466Z,90
2022-12-07T05:11:20.809Z,90
2022-12-07T05:12:22.737Z,90
2022-12-07T05:13:23.810Z,90
2022-12-07T05:14:32.377Z,90
2022-12-07T05:15:29.484Z,90
2022-12-07T05:16:24.226Z,90
2022-12-07T05:17:22.949Z,90
2022-12-07T05:18:23.611Z,90
2022-12-07T05:19:25.998Z,90
2022-12-07T05:20:23.439Z,90
2022-12-07T05:21:33.795Z,90
2022-12-07T05:22:29.147Z,90
2022-12-07T05:23:25.092Z,90
2022-12-07T05:24:21.675Z,90
2022-12-07T05:25:30.446Z,90
2022-12-07T05:26:23.112Z,90
2022-12-07T05:27:22.026Z,90
2022-12-07T05:28:33.147Z,90
2022-12-07T05:29:31.148Z,90
2022-12-07T05:30:24.547Z,90
2022-12-07T05:31:22.040Z,90
2022-12-07T05:32:34.369Z,90
2022-12-07T05:33:26.928Z,91
2022-12-07T05:34:25.773Z,91
2022-12-07T05:35:19.742Z,91
2022-12-07T05:36:28.687Z,91
2022-12-07T05:37:26.443Z,90
2022-12-07T05:38:20.116Z,90
2022-12-07T05:39:30.826Z,90
2022-12-07T05:40:31.014Z,90
2022-12-07T05:41:22.599Z,90
2022-12-07T05:42:23.218Z,90
2022-12-07T05:43:29.759Z,90
2022-12-07T05:44:24.429Z,90
2022-12-07T05:45:20.471Z,90
2022-12-07T05:46:33.545Z,90
2022-12-07T05:47:26.307Z,90
2022-12-07T05:48:25.069Z,90
2022-12-07T05:49:19.686Z,90
2022-12-07T05:50:20.000Z,90
2022-12-07T05:51:25.036Z,89
2022-12-07T05:52:21.904Z,89
2022-12-07T05:53:23.243Z,89
2022-12-07T05:54:26.644Z,89
2022-12-07T05:55:24.368Z,89
2022-12-07T05:56:23.793Z,89
2022-12-07T05:57:24.080Z,89
2022-12-07T05:58:24.382Z,89
2022-12-07T05:59:20.470Z,89
2022-12-07T06:00:26.015Z,89
2022-12-07T06:01:26.910Z,89
2022-12-07T06:02:24.232Z,89
2022-12-07T06:03:28.489Z,89
2022-12-07T06:04:22.206Z,90
2022-12-07T06:05:21.260Z,90
2022-12-07T06:06:21.053Z,90
2022-12-07T06:07:28.529Z,90
2022-12-07T06:08:26.048Z,90
2022-12-07T06:09:22.367Z,90
2022-12-07T06:10:36.399Z,89
2022-12-07T06:11:21.897Z,89
2022-12-07T06:12:24.679Z,89
2022-12-07T06:13:20.325Z,90
2022-12-07T06:14:31.131Z,90
2022-12-07T06:15:26.200Z,90
2022-12-07T06:16:23.835Z,90
2022-12-07T06:17:33.656Z,90
2022-12-07T06:18:25.347Z,90
2022-12-07T06:19:24.077Z,90
2022-12-07T06:20:21.882Z,89
2022-12-07T06:21:33.111Z,89
2022-12-07T06:22:21.245Z,89
2022-12-07T06:23:22.136Z,89
2022-12-07T06:24:32.354Z,89
2022-12-07T06:25:28.515Z,89
2022-12-07T06:26:26.695Z,89
2022-12-07T06:27:21.782Z,89
2022-12-07T06:28:31.821Z,89
2022-12-07T06:29:23.528Z,89
2022-12-07T06:30:22.811Z,89
2022-12-07T06:31:35.269Z,89
2022-12-07T06:32:30.849Z,89
2022-12-07T06:33:24.468Z,89
2022-12-07T06:34:20.342Z,89
2022-12-07T06:35:23.113Z,89
2022-12-07T06:36:27.385Z,89
2022-12-07T06:37:22.676Z,89
2022-12-07T06:38:32.387Z,90
2022-12-07T06:39:29.661Z,90
2022-12-07T06:40:21.004Z,89
2022-12-07T06:41:22.591Z,89
2022-12-07T06:42:21.540Z,89
2022-12-07T06:43:19.615Z,89
2022-12-07T06:44:22.534Z,89
2022-12-07T06:45:34.100Z,90
2022-12-07T06:46:28.623Z,90
2022-12-07T06:47:46.840Z,90
2022-12-07T06:48:20.498Z,90
2022-12-07T06:49:25.787Z,90
2022-12-07T06:50:26.383Z,90
2022-12-07T06:51:23.225Z,90
2022-12-07T06:52:33.496Z,89
2022-12-07T06:53:28.301Z,89
2022-12-07T06:54:28.502Z,90
2022-12-07T06:55:20.461Z,90
2022-12-07T06:56:30.214Z,90
2022-12-07T06:57:24.012Z,90
2022-12-07T06:58:22.433Z,89
2022-12-07T06:59:32.132Z,89
2022-12-07T07:00:28.301Z,89
2022-12-07T07:01:24.433Z,89
2022-12-07T07:02:20.601Z,89
2022-12-07T07:03:30.246Z,89
2022-12-07T07:04:28.412Z,89
2022-12-07T07:05:25.694Z,89
2022-12-07T07:06:34.231Z,90
2022-12-07T07:07:28.247Z,90
2022-12-07T07:08:26.790Z,90
2022-12-07T07:09:20.517Z,89
2022-12-07T07:10:30.703Z,90
2022-12-07T07:11:26.186Z,90
2022-12-07T07:12:24.554Z,90
2022-12-07T07:13:22.050Z,89
2022-12-07T07:14:28.595Z,90
2022-12-07T07:15:23.036Z,89
2022-12-07T07:16:24.517Z,89
2022-12-07T07:17:32.160Z,89
2022-12-07T07:18:27.043Z,89
2022-12-07T07:19:24.068Z,90
2022-12-07T07:20:21.745Z,90
2022-12-07T07:21:28.651Z,90
2022-12-07T07:22:26.559Z,90
2022-12-07T07:23:36.309Z,90
2022-12-07T07:24:30.548Z,90
2022-12-07T07:25:28.589Z,90
2022-12-07T07:26:32.762Z,90
2022-12-07T07:27:22.365Z,90
2022-12-07T07:28:22.885Z,90
2022-12-07T07:29:42.708Z,90
2022-12-07T07:30:21.038Z,90
2022-12-07T07:31:31.954Z,90
2022-12-07T07:32:23.017Z,90
2022-12-07T07:33:23.993Z,90
2022-12-07T07:34:34.105Z,89
2022-12-07T07:35:25.407Z,89
2022-12-07T07:36:19.901Z,89
2022-12-07T07:37:22.216Z,89
2022-12-07T07:38:30.504Z,89
2022-12-07T07:39:42.138Z,89
2022-12-07T07:40:38.411Z,89
2022-12-07T07:41:27.126Z,90
2022-12-07T07:42:27.367Z,90
2022-12-07T07:43:20.240Z,90
2022-12-07T07:44:21.945Z,90
2022-12-07T07:45:22.157Z,90
2022-12-07T07:46:27.731Z,90
2022-12-07T07:47:48.216Z,90
2022-12-07T07:48:32.288Z,90
2022-12-07T07:49:24.695Z,90
2022-12-07T07:50:28.852Z,90
2022-12-07T07:51:20.766Z,89
2022-12-07T07:52:25.015Z,90
2022-12-07T07:53:28.197Z,90
2022-12-07T07:54:22.572Z,90
2022-12-07T07:55:33.267Z,90
2022-12-07T07:56:20.532Z,89
2022-12-07T07:57:24.481Z,90
2022-12-07T07:58:21.641Z,90
2022-12-07T07:59:30.253Z,90
2022-12-07T08:00:22.704Z,90
2022-12-07T08:01:22.628Z,90
2022-12-07T08:02:32.812Z,90
2022-12-07T08:03:24.892Z,90
2022-12-07T08:04:24.770Z,90
2022-12-07T08:05:20.493Z,90
2022-12-07T08:06:25.546Z,90
2022-12-07T08:07:26.377Z,90
2022-12-07T08:08:22.541Z,90
2022-12-07T08:09:34.543Z,90
2022-12-07T08:10:29.475Z,90
2022-12-07T08:11:25.004Z,90
2022-12-07T08:12:20.504Z,90
2022-12-07T08:13:30.970Z,90
2022-12-07T08:14:23.926Z,90
2022-12-07T08:15:22.374Z,90
2022-12-07T08:16:34.191Z,90
2022-12-07T08:17:24.013Z,90
2022-12-07T08:18:25.849Z,90
2022-12-07T08:19:20.579Z,90
2022-12-07T08:20:31.292Z,90
2022-12-07T08:21:26.750Z,90
2022-12-07T08:22:22.271Z,90
2022-12-07T08:23:37.507Z,90
2022-12-07T08:24:28.629Z,90
2022-12-07T08:25:24.748Z,90
2022-12-07T08:26:22.121Z,90
2022-12-07T08:27:35.409Z,90
2022-12-07T08:28:21.686Z,90
2022-12-07T08:29:19.767Z,90
2022-12-07T08:30:32.530Z,90
2022-12-07T08:31:29.714Z,90
2022-12-07T08:32:25.390Z,90
2022-12-07T08:33:20.924Z,90
2022-12-07T08:34:26.542Z,90
2022-12-07T08:35:32.324Z,90
2022-12-07T08:36:24.043Z,90
2022-12-07T08:37:35.073Z,90
2022-12-07T08:38:31.749Z,90
2022-12-07T08:39:33.260Z,90
2022-12-07T08:40:20.716Z,90
2022-12-07T08:41:30.533Z,90
2022-12-07T08:42:27.768Z,90
2022-12-07T08:43:22.679Z,90
2022-12-07T08:44:20.881Z,90
2022-12-07T08:45:27.319Z,89
2022-12-07T08:46:25.347Z,90
2022-12-07T08:47:20.680Z,90
2022-12-07T08:48:30.421Z,90
2022-12-07T08:49:28.119Z,89
2022-12-07T08:50:23.276Z,90
2022-12-07T08:51:26.909Z,90
2022-12-07T08:52:28.433Z,90
2022-12-07T08:53:24.577Z,90
2022-12-07T08:54:21.397Z,90
2022-12-07T08:55:31.143Z,90
2022-12-07T08:56:21.472Z,90
2022-12-07T08:57:22.630Z,90
2022-12-07T08:58:28.596Z,90
2022-12-07T08:59:23.205Z,90
2022-12-07T09:00:24.449Z,90
2022-12-07T09:01:21.182Z,90
2022-12-07T09:02:27.112Z,90
2022-12-07T09:03:27.920Z,90
2022-12-07T09:04:29.563Z,90
2022-12-07T09:05:32.276Z,90
2022-12-07T09:06:28.469Z,90
2022-12-07T09:07:24.435Z,90
2022-12-07T09:08:20.583Z,90
2022-12-07T09:09:30.900Z,90
2022-12-07T09:10:27.227Z,90
2022-12-07T09:11:28.642Z,90
2022-12-07T09:12:32.838Z,90
2022-12-07T09:13:21.984Z,90
2022-12-07T09:14:25.956Z,90
2022-12-07T09:15:20.451Z,90
2022-12-07T09:16:32.962Z,90
2022-12-07T09:17:26.871Z,90
2022-12-07T09:18:22.512Z,90
2022-12-07T09:19:22.860Z,90
2022-12-07T09:20:28.720Z,90
2022-12-07T09:21:26.898Z,90
2022-12-07T09:22:22.296Z,90
2022-12-07T09:23:30.758Z,90
2022-12-07T09:24:26.736Z,90
2022-12-07T09:25:24.031Z,90
2022-12-07T09:26:25.209Z,90
2022-12-07T09:27:28.814Z,90
2022-12-07T09:28:24.544Z,90
2022-12-07T09:29:20.382Z,90
2022-12-07T09:30:21.724Z,90
2022-12-07T09:31:27.029Z,90
2022-12-07T09:32:22.867Z,90
2022-12-07T09:33:29.120Z,90
2022-12-07T09:34:30.286Z,90
2022-12-07T09:35:24.812Z,90
2022-12-07T09:36:20.779Z,90
2022-12-07T09:37:25.060Z,90
2022-12-07T09:38:26.694Z,90
2022-12-07T09:39:23.768Z,90
2022-12-07T09:40:34.459Z,90
2022-12-07T09:41:22.650Z,90
2022-12-07T09:42:24.812Z,90
2022-12-07T09:43:20.997Z,90
2022-12-07T09:44:26.339Z,90
2022-12-07T09:45:26.653Z,90
2022-12-07T09:46:22.804Z,90
2022-12-07T09:47:25.752Z,90
2022-12-07T09:48:21.212Z,90
2022-12-07T09:49:24.720Z,90
2022-12-07T09:50:22.122Z,90
2022-12-07T09:51:30.467Z,90
2022-12-07T09:52:23.324Z,90
2022-12-07T09:53:22.764Z,90
2022-12-07T09:54:32.493Z,90
2022-12-07T09:55:25.411Z,90
2022-12-07T09:56:24.586Z,90
2022-12-07T09:57:20.713Z,90
2022-12-07T09:58:23.281Z,90
2022-12-07T09:59:26.581Z,90
2022-12-07T10:00:19.532Z,90
2022-12-07T10:01:35.074Z,90
2022-12-07T10:02:28.734Z,90
2022-12-07T10:03:24.655Z,90
2022-12-07T10:04:20.839Z,90
2022-12-07T10:05:30.963Z,90
2022-12-07T10:06:22.387Z,90
2022-12-07T10:07:23.665Z,90
2022-12-07T10:08:32.740Z,90
2022-12-07T10:09:21.366Z,90
2022-12-07T10:10:25.068Z,90
2022-12-07T10:11:22.082Z,90
2022-12-07T10:12:32.977Z,90
2022-12-07T10:13:27.325Z,90
2022-12-07T10:14:38.127Z,90
2022-12-07T10:15:21.731Z,90
2022-12-07T10:16:29.380Z,90
2022-12-07T10:17:20.294Z,90
2022-12-07T10:18:22.425Z,90
2022-12-07T10:19:33.207Z,89
2022-12-07T10:20:27.926Z,89
2022-12-07T10:21:22.403Z,89
2022-12-07T10:22:31.586Z,89
2022-12-07T10:23:28.889Z,89
2022-12-07T10:24:25.017Z,89
2022-12-07T10:25:20.469Z,89
2022-12-07T10:26:23.645Z,89
2022-12-07T10:27:27.980Z,89
2022-12-07T10:28:23.705Z,89
2022-12-07T10:29:29.559Z,89
2022-12-07T10:30:22.507Z,90
2022-12-07T10:31:26.447Z,90
2022-12-07T10:32:20.975Z,90
2022-12-07T10:33:30.721Z,90
2022-12-07T10:34:26.766Z,90
2022-12-07T10:35:24.705Z,90
2022-12-07T10:36:33.675Z,90
2022-12-07T10:37:28.703Z,90
2022-12-07T10:38:19.283Z,90
2022-12-07T10:39:20.988Z,90
2022-12-07T10:40:30.697Z,90
2022-12-07T10:41:28.610Z,90
2022-12-07T10:42:25.313Z,90
2022-12-07T10:43:24.240Z,90
2022-12-07T10:44:31.579Z,89
2022-12-07T10:45:24.879Z,90
2022-12-07T10:46:21.147Z,90
2022-12-07T10:47:30.619Z,89
2022-12-07T10:48:26.688Z,89
2022-12-07T10:49:22.690Z,89
2022-12-07T10:50:32.548Z,89
2022-12-07T10:51:28.560Z,89
2022-12-07T10:52:29.618Z,89
2022-12-07T10:53:22.567Z,89
2022-12-07T10:54:22.997Z,89
2022-12-07T10:55:27.468Z,89
2022-12-07T10:56:22.829Z,89
2022-12-07T10:57:32.999Z,89
2022-12-07T10:58:28.592Z,89
2022-12-07T10:59:24.671Z,89
2022-12-07T11:00:28.046Z,89
2022-12-07T11:01:31.109Z,89
2022-12-07T11:02:27.415Z,89
2022-12-07T11:03:24.470Z,89
2022-12-07T11:04:21.283Z,89
2022-12-07T11:05:28.900Z,90
2022-12-07T11:06:24.612Z,90
2022-12-07T11:07:20.653Z,90
2022-12-07T11:08:24.518Z,89
2022-12-07T11:09:51.809Z,90
2022-12-07T11:10:23.043Z,90
2022-12-07T11:11:23.381Z,89
2022-12-07T11:12:29.062Z,89
2022-12-07T11:13:28.641Z,89
2022-12-07T11:14:20.778Z,90
2022-12-07T11:15:25.395Z,90
2022-12-07T11:16:20.315Z,90
2022-12-07T11:17:22.565Z,90
2022-12-07T11:18:27.474Z,90
2022-12-07T11:19:30.421Z,89
2022-12-07T11:20:25.049Z,90
2022-12-07T11:21:22.382Z,90
2022-12-07T11:22:21.349Z,89
2022-12-07T11:23:20.860Z,89
2022-12-07T11:24:23.732Z,89
2022-12-07T11:25:29.312Z,89
2022-12-07T11:26:31.052Z,89
2022-12-07T11:27:24.904Z,89
2022-12-07T11:28:21.646Z,89
2022-12-07T11:29:24.429Z,89
2022-12-07T11:30:28.533Z,89
2022-12-07T11:31:28.776Z,89
2022-12-07T11:32:32.731Z,89
2022-12-07T11:33:29.169Z,89
2022-12-07T11:34:24.907Z,89
2022-12-07T11:35:20.939Z,88
2022-12-07T11:36:27.070Z,89
2022-12-07T11:37:36.484Z,89
2022-12-07T11:38:28.221Z,89
2022-12-07T11:39:21.622Z,89
2022-12-07T11:40:24.527Z,89
2022-12-07T11:41:25.548Z,89
2022-12-07T11:42:23.246Z,89
2022-12-07T11:43:32.530Z,89
2022-12-07T11:44:27.673Z,89
2022-12-07T11:45:28.430Z,89
2022-12-07T11:46:22.853Z,89
2022-12-07T11:47:25.024Z,89
2022-12-07T11:48:26.120Z,89
2022-12-07T11:49:20.926Z,89
2022-12-07T11:50:33.242Z,89
2022-12-07T11:51:20.451Z,88
2022-12-07T11:52:22.829Z,89
2022-12-07T11:53:24.125Z,89
2022-12-07T11:54:20.229Z,89
2022-12-07T11:55:25.001Z,89
2022-12-07T11:56:22.524Z,88
2022-12-07T11:57:32.394Z,89
2022-12-07T11:58:23.552Z,89
2022-12-07T11:59:24.592Z,89
2022-12-07T12:00:26.694Z,89
2022-12-07T12:01:20.539Z,88
2022-12-07T12:02:25.596Z,89
2022-12-07T12:03:20.843Z,89
2022-12-07T12:04:31.155Z,88
2022-12-07T12:05:27.846Z,89
2022-12-07T12:06:22.887Z,89
2022-12-07T12:09:45.660Z,89
2022-12-07T12:09:52.093Z,89
2022-12-07T12:10:22.486Z,89
2022-12-07T12:11:32.600Z,89
2022-12-07T12:14:48.125Z,89
2022-12-07T12:14:48.696Z,89
2022-12-07T12:15:30.029Z,90
2022-12-07T12:16:21.023Z,89
2022-12-07T12:17:21.049Z,89
2022-12-07T12:18:31.242Z,89
2022-12-07T12:19:27.809Z,89
2022-12-07T12:20:22.704Z,88
2022-12-07T12:21:32.946Z,89
2022-12-07T12:22:33.492Z,89
2022-12-07T12:23:27.194Z,89
2022-12-07T12:24:24.327Z,89
2022-12-07T12:25:30.926Z,88
2022-12-07T12:26:27.170Z,88
2022-12-07T12:27:25.304Z,88
2022-12-07T12:28:34.056Z,89
2022-12-07T12:29:28.896Z,89
2022-12-07T12:30:31.933Z,89
2022-12-07T12:31:21.705Z,89
2022-12-07T12:32:21.127Z,89
2022-12-07T12:33:28.618Z,89
2022-12-07T12:34:25.224Z,89
2022-12-07T12:35:19.732Z,89
2022-12-07T12:36:30.529Z,89
2022-12-07T12:37:25.111Z,88
2022-12-07T12:38:22.252Z,89
2022-12-07T12:39:24.504Z,89
2022-12-07T12:40:27.001Z,89
2022-12-07T12:41:24.512Z,88
2022-12-07T12:42:33.249Z,89
2022-12-07T12:43:28.772Z,89
2022-12-07T12:44:26.786Z,89
2022-12-07T12:45:23.816Z,89
2022-12-07T12:46:23.611Z,89
2022-12-07T12:47:23.508Z,89
2022-12-07T12:48:23.026Z,89
2022-12-07T12:49:33.222Z,88
2022-12-07T12:50:30.403Z,88
2022-12-07T12:51:24.868Z,88
2022-12-07T12:52:23.195Z,89
2022-12-07T12:53:26.489Z,88
2022-12-07T12:54:20.804Z,88
2022-12-07T12:55:24.308Z,88
2022-12-07T12:56:22.973Z,88
2022-12-07T12:57:28.781Z,89
2022-12-07T12:58:26.871Z,88
2022-12-07T12:59:20.850Z,89
2022-12-07T13:00:31.161Z,88
2022-12-07T13:01:25.297Z,89
2022-12-07T13:02:23.394Z,89
2022-12-07T13:03:24.240Z,89
2022-12-07T13:04:33.357Z,89
2022-12-07T13:05:24.800Z,89
2022-12-07T13:06:22.091Z,89
2022-12-07T13:07:33.005Z,88
2022-12-07T13:08:33.525Z,88
2022-12-07T13:09:25.187Z,88
2022-12-07T13:10:20.701Z,88
2022-12-07T13:11:29.347Z,89
2022-12-07T13:12:26.637Z,89
2022-12-07T13:13:21.177Z,89
2022-12-07T13:14:23.466Z,89
2022-12-07T13:15:33.497Z,88
2022-12-07T13:16:24.774Z,88
2022-12-07T13:17:24.512Z,87
2022-12-07T13:18:30.214Z,87
2022-12-07T13:19:25.861Z,88
2022-12-07T13:20:21.983Z,87
2022-12-07T13:21:25.435Z,88
2022-12-07T13:22:27.052Z,88
2022-12-07T13:23:24.781Z,88
2022-12-07T13:24:21.880Z,87
2022-12-07T13:25:22.388Z,86
2022-12-07T13:26:25.668Z,88
2022-12-07T13:27:22.614Z,88
2022-12-07T13:28:32.324Z,88
2022-12-07T13:29:26.996Z,88
2022-12-07T13:30:23.957Z,87
2022-12-07T13:31:25.559Z,88
2022-12-07T13:32:30.553Z,88
2022-12-07T13:33:25.000Z,88
2022-12-07T13:34:21.090Z,89
2022-12-07T13:35:31.432Z,88
2022-12-07T13:36:28.715Z,87
2022-12-07T13:37:23.533Z,88
2022-12-07T13:38:29.685Z,88
2022-12-07T13:39:22.601Z,87
2022-12-07T13:40:25.946Z,87
2022-12-07T13:41:21.092Z,86
2022-12-07T13:42:30.834Z,86
2022-12-07T13:43:22.912Z,85
2022-12-07T13:44:22.980Z,87
2022-12-07T13:45:33.779Z,87
2022-12-07T13:46:31.063Z,87
2022-12-07T13:47:20.089Z,88
2022-12-07T13:48:21.682Z,88
2022-12-07T13:49:34.732Z,88
2022-12-07T13:50:26.889Z,87
2022-12-07T13:51:22.978Z,88
2022-12-07T13:52:33.186Z,87
2022-12-07T13:53:35.086Z,88
2022-12-07T13:54:24.856Z,88
2022-12-07T13:55:21.043Z,88
2022-12-07T13:56:30.746Z,88
2022-12-07T13:57:27.336Z,87
2022-12-07T13:58:22.900Z,87
2022-12-07T13:59:33.148Z,86
2022-12-07T14:00:30.819Z,87
2022-12-07T14:01:27.636Z,88
2022-12-07T14:02:22.725Z,87
2022-12-07T14:03:22.507Z,86
2022-12-07T14:04:27.506Z,86
2022-12-07T14:05:22.877Z,87
2022-12-07T14:06:36.188Z,88
2022-12-07T14:07:29.346Z,87
2022-12-07T14:08:27.215Z,87
2022-12-07T14:09:20.789Z,88
2022-12-07T14:10:26.428Z,86
2022-12-07T14:11:27.283Z,87
2022-12-07T14:12:22.907Z,88
2022-12-07T14:13:33.070Z,89
2022-12-07T14:14:36.369Z,87
2022-12-07T14:15:25.179Z,86
2022-12-07T14:16:20.855Z,85
2022-12-07T14:17:21.723Z,86
2022-12-07T14:18:25.994Z,88
2022-12-07T14:19:23.256Z,87
2022-12-07T14:20:32.985Z,86
2022-12-07T14:21:30.998Z,86
2022-12-07T14:22:25.135Z,87
2022-12-07T14:23:21.865Z,88
2022-12-07T14:24:26.458Z,87
2022-12-07T14:25:27.680Z,86
2022-12-07T14:26:23.271Z,86
2022-12-07T14:27:32.910Z,86
2022-12-07T14:28:30.450Z,86
2022-12-07T14:29:25.089Z,84
2022-12-07T14:30:21.240Z,84
2022-12-07T14:31:31.230Z,85
2022-12-07T14:32:22.342Z,87
2022-12-07T14:33:25.299Z,88
2022-12-07T14:34:35.431Z,86
2022-12-07T14:35:29.112Z,86
2022-12-07T14:36:26.876Z,86
2022-12-07T14:37:21.764Z,86
2022-12-07T14:38:34.198Z,86
2022-12-07T14:39:28.615Z,87
2022-12-07T14:40:19.437Z,87
2022-12-07T14:41:25.015Z,87
2022-12-07T14:42:28.963Z,86
2022-12-07T14:43:26.320Z,87
2022-12-07T14:44:24.855Z,86
2022-12-07T14:45:30.965Z,85
2022-12-07T14:46:29.178Z,86
2022-12-07T14:49:39.352Z,87
2022-12-07T14:49:39.618Z,87
2022-12-07T14:50:25.009Z,86
2022-12-07T14:53:37.007Z,87
2022-12-07T14:53:37.243Z,87
2022-12-07T14:54:24.267Z,88
2022-12-07T14:55:20.685Z,88
2022-12-07T14:56:23.615Z,87
2022-12-07T14:57:24.980Z,87
2022-12-07T14:58:23.666Z,86
2022-12-07T14:59:21.068Z,88
2022-12-07T15:00:27.617Z,89
2022-12-07T15:01:21.653Z,89
2022-12-07T15:02:26.846Z,88
2022-12-07T15:03:29.917Z,88
2022-12-07T15:04:23.317Z,89
2022-12-07T15:05:21.380Z,88
2022-12-07T15:06:24.118Z,88
2022-12-07T15:07:28.868Z,89
2022-12-07T15:08:23.086Z,89
2022-12-07T15:09:28.426Z,88
2022-12-07T15:10:24.481Z,89
2022-12-07T15:11:25.390Z,88
2022-12-07T15:12:23.161Z,88
2022-12-07T15:13:26.627Z,89
2022-12-07T15:14:27.681Z,88
2022-12-07T15:15:22.843Z,88
2022-12-07T15:17:06.235Z,88
2022-12-07T15:17:31.295Z,89
2022-12-07T15:18:21.867Z,89
2022-12-07T15:19:30.201Z,88
2022-12-07T15:20:31.566Z,88
2022-12-07T15:21:29.072Z,88
2022-12-07T15:22:23.805Z,88
2022-12-07T15:23:33.086Z,88
2022-12-07T15:24:27.919Z,88
2022-12-07T15:25:25.278Z,88
2022-12-07T15:26:21.055Z,88
2022-12-07T15:27:20.637Z,88
2022-12-07T15:28:19.367Z,88
2022-12-07T15:29:24.162Z,88
2022-12-07T15:30:34.304Z,88